createdAt,value
2023-04-18T00:01:11.678Z,6.00
2023-04-18T00:03:48.500Z,6.00
2023-04-18T00:06:19.539Z,5.90
2023-04-18T00:08:50.161Z,5.90
2023-04-18T00:11:19.962Z,5.90
2023-04-18T00:13:50.129Z,5.90
2023-04-18T00:16:24.780Z,5.90
2023-04-18T00:19:02.565Z,5.90
2023-04-18T00:21:46.119Z,5.90
2023-04-18T00:24:17.516Z,5.90
2023-04-18T00:26:49.422Z,5.80
2023-04-18T00:29:20.146Z,5.80
2023-04-18T00:32:31.642Z,5.80
2023-04-18T00:35:03.119Z,5.70
2023-04-18T00:37:38.243Z,5.70
2023-04-18T00:40:10.083Z,5.70
2023-04-18T00:42:40.262Z,5.70
2023-04-18T00:45:13.206Z,5.70
2023-04-18T00:50:58.523Z,5.60
2023-04-18T00:53:39.891Z,5.60
2023-04-18T00:56:14.873Z,5.60
2023-04-18T00:58:45.606Z,5.60
2023-04-18T01:01:28.573Z,5.60
2023-04-18T01:04:03.505Z,5.60
2023-04-18T01:06:44.425Z,5.60
2023-04-18T01:09:14.955Z,5.60
2023-04-18T01:11:43.758Z,5.50
2023-04-18T01:14:26.299Z,5.50
2023-04-18T01:16:57.986Z,5.50
2023-04-18T01:19:41.916Z,5.50
2023-04-18T01:25:39.806Z,5.40
2023-04-18T01:28:32.201Z,5.40
2023-04-18T01:31:12.173Z,5.40
2023-04-18T01:33:49.189Z,5.40
2023-04-18T01:36:42.224Z,5.40
2023-04-18T01:39:45.961Z,5.40
2023-04-18T01:42:29.017Z,5.30
2023-04-18T01:45:04.226Z,5.30
2023-04-18T01:47:40.122Z,5.30
2023-04-18T01:50:20.848Z,5.30
2023-04-18T01:53:20.842Z,5.30
2023-04-18T01:55:54.873Z,5.30
2023-04-18T01:58:48.227Z,5.30
2023-04-18T02:01:24.503Z,5.30
2023-04-18T02:03:58.324Z,5.20
2023-04-18T02:06:40.584Z,5.20
2023-04-18T02:09:12.807Z,5.20
2023-04-18T02:11:52.851Z,5.20
2023-04-18T02:17:28.439Z,5.20
2023-04-18T02:20:06.010Z,5.20
2023-04-18T02:22:45.420Z,5.20
2023-04-18T02:25:15.128Z,5.20
2023-04-18T02:27:48.359Z,5.20
2023-04-18T02:30:20.122Z,5.20
2023-04-18T02:32:54.439Z,5.20
2023-04-18T02:35:26.060Z,5.20
2023-04-18T02:37:55.926Z,5.20
2023-04-18T02:40:28.023Z,5.20
2023-04-18T02:42:56.869Z,5.20
2023-04-18T02:45:31.300Z,5.20
2023-04-18T02:48:03.372Z,5.20
2023-04-18T02:50:40.817Z,5.20
2023-04-18T02:53:39.514Z,5.20
2023-04-18T02:56:22.430Z,5.20
2023-04-18T02:58:55.029Z,5.10
2023-04-18T03:01:28.191Z,5.10
2023-04-18T03:07:24.645Z,5.10
2023-04-18T03:09:56.196Z,5.10
2023-04-18T03:12:34.002Z,5.10
2023-04-18T03:15:13.540Z,5.10
2023-04-18T03:17:46.094Z,5.10
2023-04-18T03:20:16.812Z,5.10
2023-04-18T03:22:45.434Z,5.10
2023-04-18T03:25:13.834Z,5.10
2023-04-18T03:27:43.684Z,5.10
2023-04-18T03:33:43.759Z,5.00
2023-04-18T03:36:17.742Z,5.00
2023-04-18T03:38:46.954Z,5.00
2023-04-18T03:41:15.508Z,5.00
2023-04-18T03:43:44.343Z,5.00
2023-04-18T03:46:13.094Z,5.00
2023-04-18T03:48:41.708Z,5.00
2023-04-18T03:51:10.441Z,5.00
2023-04-18T03:53:43.091Z,5.00
2023-04-18T03:56:11.768Z,5.00
2023-04-18T03:58:44.761Z,5.00
2023-04-18T04:01:49.632Z,5.00
2023-04-18T04:04:42.138Z,5.00
2023-04-18T04:07:56.681Z,5.00
2023-04-18T04:14:18.824Z,4.90
2023-04-18T04:16:50.094Z,4.90
2023-04-18T04:19:24.426Z,5.00
2023-04-18T04:22:12.777Z,4.90
2023-04-18T04:25:03.451Z,5.00
2023-04-18T04:27:59.548Z,5.00
2023-04-18T04:30:53.187Z,5.00
2023-04-18T04:33:38.995Z,5.00
2023-04-18T04:36:11.137Z,4.90
2023-04-18T04:38:40.721Z,4.90
2023-04-18T04:41:09.380Z,5.00
2023-04-18T04:43:41.428Z,4.90
2023-04-18T04:46:09.958Z,5.00
2023-04-18T04:48:42.323Z,4.90
2023-04-18T04:51:10.995Z,5.00
2023-04-18T04:53:39.583Z,5.00
2023-04-18T04:56:09.526Z,5.00
2023-04-18T04:58:39.565Z,5.00
2023-04-18T05:01:09.324Z,5.00
2023-04-18T05:03:37.921Z,5.00
2023-04-18T05:06:07.542Z,5.00
2023-04-18T05:12:13.056Z,5.00
2023-04-18T05:14:42.922Z,5.00
2023-04-18T05:17:11.444Z,5.00
2023-04-18T05:19:40.327Z,5.10
2023-04-18T05:22:09.798Z,5.10
2023-04-18T05:24:38.361Z,5.10
2023-04-18T05:27:07.409Z,5.10
2023-04-18T05:29:35.904Z,5.20
2023-04-18T05:32:06.809Z,5.10
2023-04-18T05:34:38.832Z,5.20
2023-04-18T05:37:07.440Z,5.20
2023-04-18T05:39:43.606Z,5.20
2023-04-18T05:42:16.033Z,5.20
2023-04-18T05:44:45.472Z,5.20
2023-04-18T05:47:15.806Z,5.20
2023-04-18T05:49:47.332Z,5.20
2023-04-18T05:52:16.366Z,5.20
2023-04-18T05:54:47.905Z,5.20
2023-04-18T05:57:20.983Z,5.20
2023-04-18T05:59:53.129Z,5.20
2023-04-18T06:02:23.833Z,5.20
2023-04-18T06:04:56.924Z,5.20
2023-04-18T06:07:26.426Z,5.20
2023-04-18T06:09:56.489Z,5.20
2023-04-18T06:12:25.372Z,5.10
2023-04-18T06:14:54.350Z,5.10
2023-04-18T06:17:24.845Z,5.10
2023-04-18T06:19:56.965Z,5.10
2023-04-18T06:22:57.838Z,5.10
2023-04-18T06:25:43.150Z,5.10
2023-04-18T06:28:14.772Z,5.10
2023-04-18T06:30:43.487Z,5.20
2023-04-18T06:33:16.544Z,5.20
2023-04-18T06:35:45.276Z,5.20
2023-04-18T06:38:13.999Z,5.20
2023-04-18T06:40:44.435Z,5.30
2023-04-18T06:43:13.204Z,5.30
2023-04-18T06:45:44.686Z,5.30
2023-04-18T06:48:13.130Z,5.30
2023-04-18T06:50:43.951Z,5.30
2023-04-18T06:53:12.750Z,5.40
2023-04-18T06:55:41.276Z,5.40
2023-04-18T06:58:10.173Z,5.40
2023-04-18T07:00:38.506Z,5.40
2023-04-18T07:03:11.334Z,5.40
2023-04-18T07:05:40.203Z,5.40
2023-04-18T07:08:10.272Z,5.40
2023-04-18T07:10:38.731Z,5.50
2023-04-18T07:13:07.021Z,5.40
2023-04-18T07:15:36.050Z,5.40
2023-04-18T07:18:05.038Z,5.40
2023-04-18T07:20:33.549Z,5.50
2023-04-18T07:23:02.840Z,5.50
2023-04-18T07:25:36.240Z,5.50
2023-04-18T07:28:04.849Z,5.60
2023-04-18T07:30:33.302Z,5.60
2023-04-18T07:33:04.901Z,5.60
2023-04-18T07:35:33.207Z,5.60
2023-04-18T07:38:03.385Z,5.70
2023-04-18T07:40:33.675Z,5.70
2023-04-18T07:43:02.306Z,5.70
2023-04-18T07:45:30.716Z,5.70
2023-04-18T07:47:59.042Z,5.70
2023-04-18T07:50:27.464Z,5.80
2023-04-18T07:52:56.517Z,5.80
2023-04-18T07:55:25.324Z,5.90
2023-04-18T07:57:55.029Z,5.90
2023-04-18T08:00:23.616Z,5.90
2023-04-18T08:02:52.096Z,5.80
2023-04-18T08:05:21.467Z,5.90
2023-04-18T08:07:49.934Z,5.90
2023-04-18T08:10:18.412Z,5.90
2023-04-18T08:12:46.939Z,5.90
2023-04-18T08:15:22.912Z,5.80
2023-04-18T08:17:52.958Z,5.80
2023-04-18T08:20:23.260Z,5.80
2023-04-18T08:23:05.683Z,5.80
2023-04-18T08:25:36.848Z,5.90
2023-04-18T08:28:06.699Z,6.00
2023-04-18T08:30:36.658Z,6.00
2023-04-18T08:33:05.218Z,6.00
2023-04-18T08:35:35.560Z,6.00
2023-04-18T08:38:03.894Z,6.10
2023-04-18T08:40:32.563Z,6.10
2023-04-18T08:43:05.107Z,6.20
2023-04-18T08:45:33.564Z,6.30
2023-04-18T08:48:04.044Z,6.30
2023-04-18T08:50:32.524Z,6.20
2023-04-18T08:53:02.258Z,6.20
2023-04-18T08:55:30.816Z,6.20
2023-04-18T08:57:59.750Z,6.20
2023-04-18T09:00:29.987Z,6.20
2023-04-18T09:02:58.706Z,6.20
2023-04-18T09:05:28.736Z,6.30
2023-04-18T09:07:57.558Z,6.20
2023-04-18T09:10:33.217Z,6.20
2023-04-18T09:13:03.839Z,6.10
2023-04-18T09:15:33.110Z,6.10
2023-04-18T09:18:11.943Z,6.20
2023-04-18T09:20:44.014Z,6.20
2023-04-18T09:23:14.682Z,6.20
2023-04-18T09:25:46.750Z,6.20
2023-04-18T09:28:27.183Z,6.30
2023-04-18T09:30:56.934Z,6.30
2023-04-18T09:33:29.445Z,6.30
2023-04-18T09:36:18.847Z,6.30
2023-04-18T09:38:47.736Z,6.30
2023-04-18T09:41:19.156Z,6.30
2023-04-18T09:43:50.073Z,6.30
2023-04-18T09:46:18.708Z,6.30
2023-04-18T09:48:47.137Z,6.30
2023-04-18T09:51:19.164Z,6.30
2023-04-18T09:53:47.918Z,6.40
2023-04-18T09:56:25.135Z,6.40
2023-04-18T09:59:01.735Z,6.40
2023-04-18T10:01:31.002Z,6.40
2023-04-18T10:04:03.713Z,6.40
2023-04-18T10:06:38.545Z,6.40
2023-04-18T10:09:09.310Z,6.40
2023-04-18T10:11:38.623Z,6.40
2023-04-18T10:14:17.335Z,6.40
2023-04-18T10:16:49.944Z,6.30
2023-04-18T10:19:26.326Z,6.30
2023-04-18T10:21:57.981Z,6.40
2023-04-18T10:24:49.955Z,6.40
2023-04-18T10:27:19.597Z,6.40
2023-04-18T10:29:49.587Z,6.50
2023-04-18T10:32:19.418Z,6.40
2023-04-18T10:34:53.496Z,6.50
2023-04-18T10:37:23.316Z,6.40
2023-04-18T10:39:58.790Z,6.50
2023-04-18T10:43:01.782Z,6.50
2023-04-18T10:45:36.642Z,6.50
2023-04-18T10:48:31.401Z,6.50
2023-04-18T10:51:20.990Z,6.50
2023-04-18T10:53:55.175Z,6.60
2023-04-18T10:56:26.323Z,6.50
2023-04-18T10:58:55.102Z,6.50
2023-04-18T11:01:31.187Z,6.60
2023-04-18T11:04:01.389Z,6.60
2023-04-18T11:06:31.481Z,6.60
2023-04-18T11:09:14.771Z,6.60
2023-04-18T11:11:44.125Z,6.60
2023-04-18T11:14:13.233Z,6.60
2023-04-18T11:16:42.001Z,6.70
2023-04-18T11:19:23.811Z,6.60
2023-04-18T11:21:53.141Z,6.60
2023-04-18T11:24:31.633Z,6.70
2023-04-18T11:27:00.524Z,6.70
2023-04-18T11:29:28.910Z,6.70
2023-04-18T11:31:58.544Z,6.70
2023-04-18T11:34:31.919Z,6.70
2023-04-18T11:37:00.757Z,6.70
2023-04-18T11:39:30.905Z,6.70
2023-04-18T11:42:02.246Z,6.70
2023-04-18T11:44:30.553Z,6.70
2023-04-18T11:46:58.896Z,6.80
2023-04-18T11:49:28.531Z,6.80
2023-04-18T11:51:56.920Z,6.90
2023-04-18T11:54:39.882Z,7.00
2023-04-18T11:57:19.913Z,7.10
2023-04-18T11:59:51.333Z,7.20
2023-04-18T12:02:20.537Z,7.30
2023-04-18T12:04:57.623Z,7.30
2023-04-18T12:07:37.499Z,7.20
2023-04-18T12:10:10.155Z,7.30
2023-04-18T12:12:38.827Z,7.20
2023-04-18T12:15:09.962Z,7.20
2023-04-18T12:17:38.764Z,7.30
2023-04-18T12:20:10.236Z,7.30
2023-04-18T12:22:43.716Z,7.30
2023-04-18T12:25:24.349Z,7.40
2023-04-18T12:28:00.383Z,7.40
2023-04-18T12:30:30.788Z,7.40
2023-04-18T12:33:02.553Z,7.30
2023-04-18T12:35:33.545Z,7.30
2023-04-18T12:38:05.121Z,7.30
2023-04-18T12:40:36.226Z,7.30
2023-04-18T12:43:05.987Z,7.20
2023-04-18T12:45:37.579Z,7.20
2023-04-18T12:48:07.687Z,7.20
2023-04-18T12:50:36.857Z,7.20
2023-04-18T12:53:05.879Z,7.20
2023-04-18T12:55:36.014Z,7.20
2023-04-18T12:58:04.970Z,7.30
2023-04-18T13:00:33.887Z,7.30
2023-04-18T13:03:02.857Z,7.30
2023-04-18T13:05:34.031Z,7.30
2023-04-18T13:10:39.845Z,7.30
2023-04-18T13:13:08.852Z,7.30
2023-04-18T13:15:40.317Z,7.30
2023-04-18T13:18:09.185Z,7.30
2023-04-18T13:20:37.919Z,7.40
2023-04-18T13:23:07.275Z,7.40
2023-04-18T13:25:37.983Z,7.30
2023-04-18T13:28:06.899Z,7.20
2023-04-18T13:30:36.329Z,7.30
2023-04-18T13:33:09.358Z,7.30
2023-04-18T13:35:38.907Z,7.20
2023-04-18T13:38:11.803Z,7.30
2023-04-18T13:40:41.753Z,7.30
2023-04-18T13:43:15.715Z,7.30
2023-04-18T13:45:46.256Z,7.40
2023-04-18T13:48:26.842Z,7.40
2023-04-18T13:50:56.704Z,7.40
2023-04-18T13:53:26.045Z,7.30
2023-04-18T13:55:56.814Z,7.30
2023-04-18T13:58:26.470Z,7.40
2023-04-18T14:00:56.492Z,7.40
2023-04-18T14:03:25.936Z,7.40
2023-04-18T14:05:55.516Z,7.30
2023-04-18T14:08:25.374Z,7.30
2023-04-18T14:10:55.548Z,7.30
2023-04-18T14:13:24.163Z,7.30
2023-04-18T14:15:56.907Z,7.40
2023-04-18T14:18:25.261Z,7.40
2023-04-18T14:20:53.913Z,7.40
2023-04-18T14:23:23.249Z,7.40
2023-04-18T14:25:52.830Z,7.40
2023-04-18T14:28:24.970Z,7.50
2023-04-18T14:30:55.476Z,7.50
2023-04-18T14:33:24.106Z,7.60
2023-04-18T14:35:54.905Z,7.60
2023-04-18T14:38:23.933Z,7.60
2023-04-18T14:41:01.194Z,7.60
2023-04-18T14:43:31.745Z,7.70
2023-04-18T14:46:00.492Z,7.70
2023-04-18T14:48:29.188Z,7.70
2023-04-18T14:50:59.136Z,7.70
2023-04-18T14:53:27.813Z,7.70
2023-04-18T14:56:00.470Z,7.70
2023-04-18T14:58:30.402Z,7.70
2023-04-18T15:00:58.998Z,7.70
2023-04-18T15:03:27.904Z,7.70
2023-04-18T15:05:57.349Z,7.70
2023-04-18T15:08:25.814Z,7.70
2023-04-18T15:10:54.173Z,7.70
2023-04-18T15:13:25.414Z,7.70
2023-04-18T15:15:56.896Z,7.70
2023-04-18T15:18:28.005Z,7.80
2023-04-18T15:20:57.085Z,7.80
2023-04-18T15:23:26.193Z,7.80
2023-04-18T15:25:54.781Z,7.80
2023-04-18T15:28:24.029Z,7.90
2023-04-18T15:30:52.372Z,7.90
2023-04-18T15:33:29.319Z,7.90
2023-04-18T15:35:57.582Z,8.00
2023-04-18T15:38:29.385Z,8.00
2023-04-18T15:40:58.356Z,8.00
2023-04-18T15:43:29.294Z,8.10
2023-04-18T15:45:57.652Z,8.00
2023-04-18T15:48:28.622Z,8.00
2023-04-18T15:50:56.887Z,7.90
2023-04-18T15:53:25.240Z,7.90
2023-04-18T15:55:53.996Z,7.90
2023-04-18T15:58:24.088Z,8.00
2023-04-18T16:00:52.925Z,8.00
2023-04-18T16:03:27.605Z,8.00
2023-04-18T16:05:57.743Z,8.10
2023-04-18T16:08:26.499Z,8.20
2023-04-18T16:10:54.890Z,8.10
2023-04-18T16:13:23.268Z,8.20
2023-04-18T16:15:54.645Z,8.10
2023-04-18T16:18:23.121Z,8.10
2023-04-18T16:20:51.855Z,8.10
2023-04-18T16:23:21.913Z,8.10
2023-04-18T16:25:51.125Z,8.00
2023-04-18T16:28:22.393Z,8.00
2023-04-18T16:30:52.043Z,8.00
2023-04-18T16:33:24.838Z,8.00
2023-04-18T16:35:54.366Z,8.00
2023-04-18T16:38:27.436Z,8.00
2023-04-18T16:40:57.382Z,7.90
2023-04-18T16:43:27.047Z,8.00
2023-04-18T16:45:57.578Z,7.90
2023-04-18T16:48:32.083Z,7.90
2023-04-18T16:51:00.521Z,7.90
2023-04-18T16:53:30.339Z,7.90
2023-04-18T16:55:59.690Z,7.90
2023-04-18T16:58:28.126Z,7.90
2023-04-18T17:00:57.205Z,7.90
2023-04-18T17:03:25.672Z,7.80
2023-04-18T17:05:54.349Z,7.80
2023-04-18T17:08:22.735Z,7.80
2023-04-18T17:10:54.376Z,7.80
2023-04-18T17:13:30.688Z,7.80
2023-04-18T17:15:59.207Z,7.80
2023-04-18T17:18:27.494Z,7.80
2023-04-18T17:20:55.982Z,7.80
2023-04-18T17:23:24.308Z,7.70
2023-04-18T17:25:58.314Z,7.80
2023-04-18T17:28:26.663Z,7.80
2023-04-18T17:30:57.397Z,7.80
2023-04-18T17:33:26.055Z,7.80
2023-04-18T17:35:54.442Z,7.80
2023-04-18T17:38:23.011Z,7.80
2023-04-18T17:41:01.015Z,7.70
2023-04-18T17:43:32.222Z,7.70
2023-04-18T17:46:05.385Z,7.70
2023-04-18T17:48:36.420Z,7.80
2023-04-18T17:51:10.869Z,7.80
2023-04-18T17:53:39.207Z,7.70
2023-04-18T17:56:09.115Z,7.70
2023-04-18T17:58:37.448Z,7.70
2023-04-18T18:01:14.533Z,7.70
2023-04-18T18:03:42.964Z,7.70
2023-04-18T18:06:15.957Z,7.70
2023-04-18T18:08:44.943Z,7.70
2023-04-18T18:11:14.888Z,7.80
2023-04-18T18:13:43.140Z,7.80
2023-04-18T18:16:11.450Z,7.80
2023-04-18T18:18:46.529Z,7.80
2023-04-18T18:21:15.234Z,7.70
2023-04-18T18:23:43.772Z,7.80
2023-04-18T18:26:28.964Z,7.80
2023-04-18T18:28:57.266Z,7.80
2023-04-18T18:31:31.393Z,7.80
2023-04-18T18:33:59.637Z,7.80
2023-04-18T18:36:28.664Z,7.80
2023-04-18T18:38:57.199Z,7.80
2023-04-18T18:41:30.707Z,7.80
2023-04-18T18:43:59.113Z,7.80
2023-04-18T18:46:27.831Z,7.80
2023-04-18T18:48:56.530Z,7.70
2023-04-18T18:51:27.987Z,7.80
2023-04-18T18:53:56.928Z,7.80
2023-04-18T18:56:33.768Z,7.70
2023-04-18T18:59:06.581Z,7.70
2023-04-18T19:01:37.713Z,7.70
2023-04-18T19:04:07.852Z,7.70
2023-04-18T19:06:36.468Z,7.70
2023-04-18T19:09:05.390Z,7.70
2023-04-18T19:11:36.718Z,7.70
2023-04-18T19:14:09.406Z,7.70
2023-04-18T19:16:43.730Z,7.70
2023-04-18T19:19:12.290Z,7.70
2023-04-18T19:21:46.223Z,7.70
2023-04-18T19:24:14.640Z,7.70
2023-04-18T19:26:43.223Z,7.70
2023-04-18T19:29:14.455Z,7.70
2023-04-18T19:31:44.079Z,7.70
2023-04-18T19:34:13.585Z,7.70
2023-04-18T19:36:42.349Z,7.70
2023-04-18T19:39:19.576Z,7.80
2023-04-18T19:41:48.016Z,7.80
2023-04-18T19:44:17.806Z,7.80
2023-04-18T19:46:46.258Z,7.80
2023-04-18T19:49:14.872Z,7.80
2023-04-18T19:51:43.405Z,7.80
2023-04-18T19:54:14.810Z,7.80
2023-04-18T19:56:43.112Z,7.70
2023-04-18T19:59:11.353Z,7.70
2023-04-18T20:01:44.046Z,7.70
2023-04-18T20:04:12.618Z,7.70
2023-04-18T20:06:41.291Z,7.70
2023-04-18T20:09:15.332Z,7.70
2023-04-18T20:11:43.918Z,7.70
2023-04-18T20:14:12.276Z,7.60
2023-04-18T20:16:42.907Z,7.60
2023-04-18T20:19:12.668Z,7.60
2023-04-18T20:21:41.196Z,7.60
2023-04-18T20:24:10.202Z,7.50
2023-04-18T20:26:38.509Z,7.50
2023-04-18T20:29:06.877Z,7.50
2023-04-18T20:31:37.833Z,7.50
2023-04-18T20:34:07.664Z,7.50
2023-04-18T20:36:36.116Z,7.50
2023-04-18T20:39:06.146Z,7.50
2023-04-18T20:41:34.964Z,7.50
2023-04-18T20:44:05.289Z,7.50
2023-04-18T20:46:33.676Z,7.50
2023-04-18T20:49:02.065Z,7.50
2023-04-18T20:51:31.972Z,7.50
2023-04-18T20:54:00.278Z,7.50
2023-04-18T20:56:28.535Z,7.40
2023-04-18T20:58:59.422Z,7.40
2023-04-18T21:01:27.752Z,7.40
2023-04-18T21:03:56.331Z,7.40
2023-04-18T21:06:24.860Z,7.40
2023-04-18T21:08:54.740Z,7.40
2023-04-18T21:11:23.667Z,7.40
2023-04-18T21:13:52.152Z,7.40
2023-04-18T21:16:20.428Z,7.40
2023-04-18T21:18:48.742Z,7.40
2023-04-18T21:21:17.002Z,7.40
2023-04-18T21:23:45.687Z,7.40
2023-04-18T21:26:15.598Z,7.40
2023-04-18T21:28:57.283Z,7.40
2023-04-18T21:31:26.091Z,7.40
2023-04-18T21:33:55.479Z,7.40
2023-04-18T21:36:24.974Z,7.50
2023-04-18T21:38:54.247Z,7.40
2023-04-18T21:41:24.641Z,7.50
2023-04-18T21:43:53.432Z,7.50
2023-04-18T21:46:22.054Z,7.50
2023-04-18T21:48:50.453Z,7.50
2023-04-18T21:51:18.934Z,7.50
2023-04-18T21:53:47.324Z,7.40
2023-04-18T21:56:16.118Z,7.40
2023-04-18T21:58:45.841Z,7.40
2023-04-18T22:01:14.160Z,7.40
2023-04-18T22:03:42.583Z,7.40
2023-04-18T22:06:11.874Z,7.40
2023-04-18T22:08:42.127Z,7.40
2023-04-18T22:11:11.837Z,7.40
2023-04-18T22:13:40.144Z,7.40
2023-04-18T22:16:10.546Z,7.40
2023-04-18T22:18:39.126Z,7.40
2023-04-18T22:21:09.649Z,7.40
2023-04-18T22:23:38.116Z,7.30
2023-04-18T22:26:06.482Z,7.40
2023-04-18T22:28:34.915Z,7.40
2023-04-18T22:31:03.274Z,7.40
2023-04-18T22:33:33.074Z,7.40
2023-04-18T22:36:01.826Z,7.50
2023-04-18T22:38:30.121Z,7.50
2023-04-18T22:40:58.548Z,7.60
2023-04-18T22:43:26.929Z,7.60
2023-04-18T22:45:55.313Z,7.70
2023-04-18T22:48:23.805Z,7.70
2023-04-18T22:50:53.703Z,7.70
2023-04-18T22:53:22.031Z,7.80
2023-04-18T22:55:50.305Z,7.80
2023-04-18T22:58:18.567Z,7.80
2023-04-18T23:00:46.849Z,7.80
2023-04-18T23:03:15.346Z,7.70
2023-04-18T23:05:43.771Z,7.70
2023-04-18T23:08:13.543Z,7.70
2023-04-18T23:10:42.000Z,7.70
2023-04-18T23:13:10.478Z,7.70
2023-04-18T23:15:38.732Z,7.70
2023-04-18T23:18:07.250Z,7.70
2023-04-18T23:20:36.363Z,7.70
2023-04-18T23:23:05.047Z,7.70
2023-04-18T23:25:35.225Z,7.70
2023-04-18T23:28:03.745Z,7.70
2023-04-18T23:30:32.116Z,7.70
2023-04-18T23:33:00.553Z,7.70
2023-04-18T23:35:29.379Z,7.60
2023-04-18T23:37:58.225Z,7.70
2023-04-18T23:40:26.519Z,7.70
2023-04-18T23:42:56.367Z,7.70
2023-04-18T23:45:25.471Z,7.70
2023-04-18T23:47:53.937Z,7.60
2023-04-18T23:50:22.269Z,7.70
2023-04-18T23:52:50.659Z,7.70
2023-04-18T23:55:19.037Z,7.70
2023-04-18T23:57:47.344Z,7.70
